Decoded Metar for KEUF ( in _UNIDENTIFIED) (IATA:N/A) | Meteo·Mobile Aviation Weather
aviador You're here:

KEUF Decoded Metar

in _UNIDENTIFIED
Report Time2018-09-19 14:58:00
UTC Time2018-09-19 15:29:35
Flight Rules vfr VFR
WindVRB at 04 kt
Visibility9999 m
Phenomena:N/A
Clouds:N/A
Expected CloudBase > 3,600 ft AGL from Temp-Dew spread
CeilingNone
Temp32°C (ISA +18)
Dew Point23°C (59% RH)
Heat Index36.8°C
QNH1016 hPa
Density Alt2,559 ft
Elevation285 ft
Report Wrong Elevation
Raw Report
METAR KEUF 191458Z AUTO VRB04KT 10SM CLR 32/23 A2999 RMK AO2 SLP152
T03170233 51011=

Extra information for KEUF:More info

Metar Taf Metar & Taf Last 4 Metars F.Rules Stats Wind Profile Meteogram Temp Stats Metar ALERT Operation Metar Decoded Social comments